• Join FlightAware (Why Join?)
  • Login
  • US Flag 
08:10AM EDT


 

Airport Tracker/Info


-or-


 

Live Flight TrackerFlight Track Log ✈ CTL18 ✈ 30-Apr-2013 ✈ KPTK - KMBS

Flight Track Log - Related Links

Times and Time Zones

All times are in EDT time to prevent confusion due to time zone crossing. See the CTL18 flight status page for this flight to view local times or setup timezone preferences in your user account.

Time Position Orientation Groundspeed Altitude Reporting Facility
EDT Latitude Longitude Course Direction KTS MPH feet Rate Location/Type
07:08PM 42.6622 -83.4433 24° Northeast 112 129 1,400  Level Cleveland Center
07:10PM 42.6949 -83.4234 24° Northeast  Level FlightAware Approximate
07:17PM 42.9299 -83.3996 321° Northwest  Level FlightAware Approximate
07:18PM 42.9573 -83.4297 321° Northwest  Level FlightAware Approximate
07:19PM 42.9847 -83.4598 321° Northwest  Level FlightAware Approximate
07:20PM 43.0121 -83.4900 321° Northwest  Level FlightAware Approximate
07:21PM 43.0395 -83.5203 321° Northwest  Level FlightAware Approximate
07:22PM 43.0669 -83.5505 321° Northwest  Level FlightAware Approximate
07:23PM 43.0942 -83.5808 321° Northwest  Level FlightAware Approximate
07:24PM 43.1216 -83.6111 321° Northwest  Level FlightAware Approximate
07:25PM 43.1489 -83.6414 321° Northwest  Level FlightAware Approximate
07:26PM 43.1763 -83.6718 321° Northwest  Level FlightAware Approximate
07:27PM 43.2036 -83.7021 321° Northwest  Level FlightAware Approximate
07:28PM 43.2304 -83.7334 318° Northwest  Level FlightAware Approximate
07:29PM 43.2567 -83.7655 318° Northwest  Level FlightAware Approximate
07:30PM 43.2830 -83.7976 318° Northwest  Level FlightAware Approximate
07:31PM 43.3093 -83.8297 318° Northwest  Level FlightAware Approximate
07:32PM 43.3355 -83.8619 318° Northwest  Level FlightAware Approximate
07:33PM 43.3618 -83.8940 318° Northwest  Level FlightAware Approximate
07:34PM 43.3899 -83.9232 324° Northwest  Level FlightAware Approximate
07:35PM 43.4184 -83.9516 324° Northwest  Level FlightAware Approximate
07:36PM 43.4468 -83.9801 324° Northwest  Level FlightAware Approximate
07:37PM 43.4753 -84.0086 324° Northwest  Level FlightAware Approximate
07:38PM 43.5026 -84.0386 305° West  Level FlightAware Approximate